AirNav   Air Wisconsin Up To $57,000 Bonus
 
 1573 users online  

20CL Mysterious Valley Airport
Pope Valley, California, USA

GOING TO POPE VALLEY?


FAA INFORMATION EFFECTIVE 04 NOVEMBER 2021

Location

FAA Identifier: 20CL
Lat/Long: 38-44-57.6490N 122-22-02.9220W
38-44.960817N 122-22.048700W
38.7493469,-122.3674783
(estimated)
Elevation: 1410 ft. / 430 m (estimated)
Variation: 16E (1985)
From city: 9 miles N of POPE VALLEY, CA
Time zone: UTC -7 (UTC -8 during Standard Time)
Zip code: 94558

Airport Operations

Airport use: Private use. Permission required prior to landing
Activation date: 05/1971
Control tower: no
ARTCC: OAKLAND CENTER
FSS: OAKLAND FLIGHT SERVICE STATION
Attendance: IREG
Wind indicator: yes
Segmented circle: no

Nearby radio navigation aids

VOR radial/distance  VOR name  Freq  Var
ILAr201/25.0WILLIAMS VORTAC114.4018E
SGDr343/34.2SCAGGS ISLAND VORTAC112.1017E

Airport Services

Airframe service: NONE
Powerplant service: NONE

Runway Information

Runway 14/32

Dimensions: 3500 x 30 ft. / 1067 x 9 m
Surface: gravel
RUNWAY 14  RUNWAY 32
Traffic pattern: leftleft

Airport Ownership and Management from official FAA records

Ownership: Privately-owned
Owner: PERRY CLARK
AMIZETTA WINERY 1099 GREENFIELD RD
ST HELENA, CA 94574

Airport Operational Statistics

Aircraft based on the field: 2
Single engine airplanes: 2
    

Additional Remarks

HAZARDOUS STRIP-SURROUNDED BY HILLS, 95 FT FENCE TO FENCE.
FOR CD CTC OAKLAND ARTCC AT 510-745-3380.

Instrument Procedures

There are no published instrument procedures at 20CL.

Some nearby airports with instrument procedures:

O41 - Watts-Woodland Airport (24 nm E)
KSTS - Charles M Schulz - Sonoma County Airport (25 nm SW)
KDWA - Yolo County Airport (26 nm SE)
1O2 - Lampson Field Airport (29 nm NW)
O60 - Cloverdale Municipal Airport (29 nm W)
 
Loc | Ops | Rwys | IFR | FBO | Links
Com | Nav | Svcs | Stats | Notes

Sonoma Jet Center
 
Area around 20CL (Mysterious Valley Airport)
 
Road maps at: MapQuest Bing Google
 
Aerial photo
WARNING: Photo may not be current or correct
Aerial photo of 20CL (Mysterious Valley Airport)
Do you have a better or more recent aerial photo of Mysterious Valley Airport that you would like to share? If so, please send us your photo.

 
Sectional chart

 
Airport distance calculator
Flying to Mysterious Valley Airport? Find the distance to fly.

From to 20CL

Sunrise and sunset
Times for 30-Nov-2021
 Local
(UTC-8)
 Zulu
(UTC)
Morning civil twilight06:4014:40
Sunrise07:0915:09
Sunset16:4800:48
Evening civil twilight17:1701:17

Current date and time
Zulu (UTC)  30-Nov-2021 18:22:37
Local (UTC-8)  30-Nov-2021 10:22:37
 
METAR
KSTS 
26nm SW 
707-573-8393
301753Z 00000KT 10SM BCFG CLR 12/08 A3018 RMK AO2 SLP214 60000 T01170083 10117 20028 50009
KDWA 
26nm SE 
301755Z AUTO VRB06KT 10SM CLR 13/11 A3021 RMK AO2
KVCB 
29nm SE 
301753Z AUTO 02007KT 10SM CLR 15/09 A3019 RMK AO2 SLP223 T01500094 10150 20033 53008
KEDU 
30nm SE 
301755Z AUTO 02005KT 10SM CLR 10/10 A3020 RMK AO1
KO69 
32nm S 
301755Z AUTO 00000KT 10SM CLR 10/10 A3019 RMK A01
KAPC 
33nm S 
301754Z 00000KT 10SM FEW001 11/11 A3018 RMK AO2 SLP210 T01110111 10111 20039 50010 $
KSUU 
36nm SE 
301758Z 08003KT 8SM CLR 14/10 A3019 RMK AO2A SLP230 60000 T01360104 10136 20045 52010 $
KSMF 
36nm E 
301753Z 34004KT 2SM BR BCFG SCT004 BKN200 10/09 A3019 RMK AO2 SFC VIS 5 SLP224 VIS SW-N 1 T01000089 10100 20028 51016
KDVO 
37nm S 
301755Z AUTO 00000KT 10SM CLR 12/12 A3019 RMK AO2
KMYV 
43nm NE 
301753Z AUTO 00000KT 10SM CLR 13/08 A3019 RMK AO2 SLP228 T01330078 10133 20039 $
TAF
KSTS 
26nm SW 
300800Z 3008/0106 00000KT 2SM BR FEW250 TEMPO 3008/3011 1/4SM FG VV001 FM301100 00000KT 1/2SM FG VV002 FM301700 VRB03KT 6SM BR FEW250 FM301900 VRB03KT P6SM SKC
NOTAMs
Click for the latest NOTAMs
NOTAMs are issued by the DoD/FAA and will open in a separate window not controlled by AirNav.

 

 
 

Would you like to see your business listed on this page?

 If your business provides an interesting product or service to pilots, flight crews, aircraft, or users of the Mysterious Valley Airport, you should consider listing it here.  To start the listing process, click on the button below
 
Add a business
 

Other Pages about Mysterious Valley Airport

Update a link
 
Copyright © AirNav, LLC. All rights reserved. Privacy Policy  Contact